sensor_id;sensor_type;location;lat;lon;timestamp;P1;durP1;ratioP1;P2;durP2;ratioP2
13605;SDS011;6874;52.084;5.090;2023-09-19T00:00:20;373.23;;;358.27;;
13605;SDS011;6874;52.084;5.090;2023-09-19T00:02:56;377.93;;;362.80;;
13605;SDS011;6874;52.084;5.090;2023-09-19T00:05:24;366.37;;;351.73;;
13605;SDS011;6874;52.084;5.090;2023-09-19T00:07:54;370.20;;;355.43;;
13605;SDS011;6874;52.084;5.090;2023-09-19T00:10:21;376.00;;;361.03;;
13605;SDS011;6874;52.084;5.090;2023-09-19T00:12:49;369.70;;;355.00;;
13605;SDS011;6874;52.084;5.090;2023-09-19T00:15:16;377.67;;;362.73;;
13605;SDS011;6874;52.084;5.090;2023-09-19T00:17:42;370.40;;;355.77;;
13605;SDS011;6874;52.084;5.090;2023-09-19T00:20:08;372.33;;;357.70;;
13605;SDS011;6874;52.084;5.090;2023-09-19T00:22:41;367.03;;;352.40;;
13605;SDS011;6874;52.084;5.090;2023-09-19T00:25:10;368.07;;;353.40;;
13605;SDS011;6874;52.084;5.090;2023-09-19T00:27:39;359.57;;;345.27;;
13605;SDS011;6874;52.084;5.090;2023-09-19T00:30:07;355.23;;;340.97;;
13605;SDS011;6874;52.084;5.090;2023-09-19T00:32:52;378.87;;;363.87;;
13605;SDS011;6874;52.084;5.090;2023-09-19T00:35:19;368.67;;;354.17;;
13605;SDS011;6874;52.084;5.090;2023-09-19T00:37:48;378.87;;;364.07;;
13605;SDS011;6874;52.084;5.090;2023-09-19T00:40:14;359.90;;;345.63;;
13605;SDS011;6874;52.084;5.090;2023-09-19T00:42:42;345.23;;;331.80;;
13605;SDS011;6874;52.084;5.090;2023-09-19T00:45:09;351.03;;;337.37;;
13605;SDS011;6874;52.084;5.090;2023-09-19T00:47:37;357.67;;;343.60;;
13605;SDS011;6874;52.084;5.090;2023-09-19T00:50:09;341.43;;;327.83;;
13605;SDS011;6874;52.084;5.090;2023-09-19T00:52:36;331.53;;;318.57;;
13605;SDS011;6874;52.084;5.090;2023-09-19T00:55:06;339.53;;;326.20;;
13605;SDS011;6874;52.084;5.090;2023-09-19T00:57:36;331.60;;;318.50;;
13605;SDS011;6874;52.084;5.090;2023-09-19T01:00:06;337.40;;;324.03;;
13605;SDS011;6874;52.084;5.090;2023-09-19T01:02:36;338.33;;;324.97;;
13605;SDS011;6874;52.084;5.090;2023-09-19T01:05:02;339.63;;;326.33;;
13605;SDS011;6874;52.084;5.090;2023-09-19T01:07:31;334.70;;;321.70;;
13605;SDS011;6874;52.084;5.090;2023-09-19T01:09:58;331.67;;;318.63;;
13605;SDS011;6874;52.084;5.090;2023-09-19T01:12:33;332.10;;;319.23;;
13605;SDS011;6874;52.084;5.090;2023-09-19T01:20:58;299.83;;;288.23;;
13605;SDS011;6874;52.084;5.090;2023-09-19T01:29:49;287.00;;;276.10;;
13605;SDS011;6874;52.084;5.090;2023-09-19T01:32:16;314.37;;;302.20;;
13605;SDS011;6874;52.084;5.090;2023-09-19T01:34:47;308.10;;;296.23;;
13605;SDS011;6874;52.084;5.090;2023-09-19T01:37:18;316.63;;;304.53;;
13605;SDS011;6874;52.084;5.090;2023-09-19T01:40:09;314.57;;;302.57;;
13605;SDS011;6874;52.084;5.090;2023-09-19T01:42:41;310.70;;;298.83;;
13605;SDS011;6874;52.084;5.090;2023-09-19T01:47:49;324.33;;;312.17;;
13605;SDS011;6874;52.084;5.090;2023-09-19T01:50:32;331.33;;;318.80;;
13605;SDS011;6874;52.084;5.090;2023-09-19T01:53:07;317.10;;;305.17;;
13605;SDS011;6874;52.084;5.090;2023-09-19T01:55:44;319.33;;;307.30;;
13605;SDS011;6874;52.084;5.090;2023-09-19T01:58:20;316.20;;;304.30;;
13605;SDS011;6874;52.084;5.090;2023-09-19T02:01:00;291.60;;;280.90;;
13605;SDS011;6874;52.084;5.090;2023-09-19T02:03:26;259.20;;;249.87;;
13605;SDS011;6874;52.084;5.090;2023-09-19T02:05:53;259.93;;;250.70;;
13605;SDS011;6874;52.084;5.090;2023-09-19T02:08:20;271.63;;;261.97;;
13605;SDS011;6874;52.084;5.090;2023-09-19T02:10:50;266.93;;;257.50;;
13605;SDS011;6874;52.084;5.090;2023-09-19T02:13:18;259.10;;;249.93;;
13605;SDS011;6874;52.084;5.090;2023-09-19T02:15:44;245.80;;;237.27;;
13605;SDS011;6874;52.084;5.090;2023-09-19T02:18:11;251.63;;;242.90;;
13605;SDS011;6874;52.084;5.090;2023-09-19T02:20:37;254.73;;;245.97;;
13605;SDS011;6874;52.084;5.090;2023-09-19T02:23:03;242.30;;;233.97;;
13605;SDS011;6874;52.084;5.090;2023-09-19T02:25:29;242.30;;;233.93;;
13605;SDS011;6874;52.084;5.090;2023-09-19T02:27:56;247.63;;;239.13;;
13605;SDS011;6874;52.084;5.090;2023-09-19T02:30:23;248.60;;;240.07;;
13605;SDS011;6874;52.084;5.090;2023-09-19T02:32:50;244.83;;;236.43;;
13605;SDS011;6874;52.084;5.090;2023-09-19T02:35:16;242.80;;;234.40;;
13605;SDS011;6874;52.084;5.090;2023-09-19T02:37:44;243.20;;;234.87;;
13605;SDS011;6874;52.084;5.090;2023-09-19T02:40:10;240.70;;;232.57;;
13605;SDS011;6874;52.084;5.090;2023-09-19T02:42:48;244.20;;;235.83;;
13605;SDS011;6874;52.084;5.090;2023-09-19T02:45:17;229.90;;;222.13;;
13605;SDS011;6874;52.084;5.090;2023-09-19T02:47:44;231.07;;;223.17;;
13605;SDS011;6874;52.084;5.090;2023-09-19T02:50:10;226.20;;;218.53;;
13605;SDS011;6874;52.084;5.090;2023-09-19T02:52:36;226.53;;;218.87;;
13605;SDS011;6874;52.084;5.090;2023-09-19T02:55:02;218.87;;;211.43;;
13605;SDS011;6874;52.084;5.090;2023-09-19T02:57:29;217.83;;;210.43;;
13605;SDS011;6874;52.084;5.090;2023-09-19T02:59:56;215.73;;;208.43;;
13605;SDS011;6874;52.084;5.090;2023-09-19T03:02:21;216.07;;;208.73;;
13605;SDS011;6874;52.084;5.090;2023-09-19T03:04:49;211.70;;;204.63;;
13605;SDS011;6874;52.084;5.090;2023-09-19T03:07:16;217.53;;;210.27;;
13605;SDS011;6874;52.084;5.090;2023-09-19T03:09:42;200.00;;;193.30;;
13605;SDS011;6874;52.084;5.090;2023-09-19T03:12:08;203.00;;;196.13;;
13605;SDS011;6874;52.084;5.090;2023-09-19T03:14:33;201.50;;;194.70;;
13605;SDS011;6874;52.084;5.090;2023-09-19T03:17:00;201.10;;;194.37;;
13605;SDS011;6874;52.084;5.090;2023-09-19T03:19:29;196.03;;;189.37;;
13605;SDS011;6874;52.084;5.090;2023-09-19T03:21:58;197.07;;;190.47;;
13605;SDS011;6874;52.084;5.090;2023-09-19T03:24:24;199.23;;;192.57;;
13605;SDS011;6874;52.084;5.090;2023-09-19T03:26:49;196.27;;;189.67;;
13605;SDS011;6874;52.084;5.090;2023-09-19T03:29:15;198.23;;;191.60;;
13605;SDS011;6874;52.084;5.090;2023-09-19T03:31:42;189.63;;;183.33;;
13605;SDS011;6874;52.084;5.090;2023-09-19T03:34:08;184.27;;;178.03;;
13605;SDS011;6874;52.084;5.090;2023-09-19T03:36:34;180.37;;;174.27;;
13605;SDS011;6874;52.084;5.090;2023-09-19T03:39:00;184.47;;;178.30;;
13605;SDS011;6874;52.084;5.090;2023-09-19T03:41:25;178.53;;;172.47;;
13605;SDS011;6874;52.084;5.090;2023-09-19T03:43:51;174.70;;;168.83;;
13605;SDS011;6874;52.084;5.090;2023-09-19T03:46:16;164.20;;;158.70;;
13605;SDS011;6874;52.084;5.090;2023-09-19T03:48:42;168.90;;;163.27;;
13605;SDS011;6874;52.084;5.090;2023-09-19T03:51:08;166.77;;;161.20;;
13605;SDS011;6874;52.084;5.090;2023-09-19T03:53:34;164.23;;;158.70;;
13605;SDS011;6874;52.084;5.090;2023-09-19T03:55:59;173.70;;;167.93;;
13605;SDS011;6874;52.084;5.090;2023-09-19T03:58:25;170.47;;;164.73;;
13605;SDS011;6874;52.084;5.090;2023-09-19T04:00:54;173.83;;;167.97;;
13605;SDS011;6874;52.084;5.090;2023-09-19T04:03:20;172.83;;;167.03;;
13605;SDS011;6874;52.084;5.090;2023-09-19T04:05:46;183.53;;;177.43;;
13605;SDS011;6874;52.084;5.090;2023-09-19T04:08:12;163.97;;;158.47;;
13605;SDS011;6874;52.084;5.090;2023-09-19T04:10:41;169.70;;;163.97;;
13605;SDS011;6874;52.084;5.090;2023-09-19T04:13:07;167.83;;;162.20;;
13605;SDS011;6874;52.084;5.090;2023-09-19T04:15:33;170.30;;;164.60;;
13605;SDS011;6874;52.084;5.090;2023-09-19T04:17:58;162.03;;;156.57;;
13605;SDS011;6874;52.084;5.090;2023-09-19T04:20:24;163.57;;;158.07;;
13605;SDS011;6874;52.084;5.090;2023-09-19T04:22:50;163.30;;;157.83;;
13605;SDS011;6874;52.084;5.090;2023-09-19T04:25:16;159.50;;;154.17;;
13605;SDS011;6874;52.084;5.090;2023-09-19T04:27:43;148.03;;;143.10;;
13605;SDS011;6874;52.084;5.090;2023-09-19T04:30:09;147.80;;;142.87;;
13605;SDS011;6874;52.084;5.090;2023-09-19T04:32:37;142.00;;;137.27;;
13605;SDS011;6874;52.084;5.090;2023-09-19T04:35:05;138.23;;;133.63;;
13605;SDS011;6874;52.084;5.090;2023-09-19T04:37:33;139.83;;;135.13;;
13605;SDS011;6874;52.084;5.090;2023-09-19T04:40:03;138.60;;;134.00;;
13605;SDS011;6874;52.084;5.090;2023-09-19T04:42:31;136.23;;;131.63;;
13605;SDS011;6874;52.084;5.090;2023-09-19T04:44:56;133.43;;;128.97;;
13605;SDS011;6874;52.084;5.090;2023-09-19T04:47:24;130.70;;;126.33;;
13605;SDS011;6874;52.084;5.090;2023-09-19T04:49:50;124.80;;;120.63;;
13605;SDS011;6874;52.084;5.090;2023-09-19T04:52:15;136.33;;;131.77;;
13605;SDS011;6874;52.084;5.090;2023-09-19T04:54:41;130.27;;;125.97;;
13605;SDS011;6874;52.084;5.090;2023-09-19T04:57:07;127.83;;;123.57;;
13605;SDS011;6874;52.084;5.090;2023-09-19T04:59:32;129.97;;;125.63;;
13605;SDS011;6874;52.084;5.090;2023-09-19T05:01:58;133.47;;;129.00;;
13605;SDS011;6874;52.084;5.090;2023-09-19T05:04:24;137.20;;;132.57;;
13605;SDS011;6874;52.084;5.090;2023-09-19T05:06:50;137.30;;;132.73;;
13605;SDS011;6874;52.084;5.090;2023-09-19T05:09:15;141.53;;;136.80;;
13605;SDS011;6874;52.084;5.090;2023-09-19T05:11:45;140.37;;;135.63;;
13605;SDS011;6874;52.084;5.090;2023-09-19T05:14:11;139.53;;;134.80;;
13605;SDS011;6874;52.084;5.090;2023-09-19T05:16:36;139.00;;;134.33;;
13605;SDS011;6874;52.084;5.090;2023-09-19T05:19:02;148.30;;;143.37;;
13605;SDS011;6874;52.084;5.090;2023-09-19T05:21:28;147.57;;;142.57;;
13605;SDS011;6874;52.084;5.090;2023-09-19T05:23:55;153.73;;;148.53;;
13605;SDS011;6874;52.084;5.090;2023-09-19T05:26:21;153.67;;;148.50;;
13605;SDS011;6874;52.084;5.090;2023-09-19T05:28:47;731.28;;;697.03;;
13605;SDS011;6874;52.084;5.090;2023-09-19T05:31:13;147.40;;;142.30;;
13605;SDS011;6874;52.084;5.090;2023-09-19T05:33:40;160.47;;;154.77;;
13605;SDS011;6874;52.084;5.090;2023-09-19T05:36:05;153.70;;;148.17;;
13605;SDS011;6874;52.084;5.090;2023-09-19T05:38:48;134.90;;;130.20;;
13605;SDS011;6874;52.084;5.090;2023-09-19T05:41:15;103.63;;;100.23;;
13605;SDS011;6874;52.084;5.090;2023-09-19T05:43:41;112.60;;;108.90;;
13605;SDS011;6874;52.084;5.090;2023-09-19T05:46:07;121.57;;;117.47;;
13605;SDS011;6874;52.084;5.090;2023-09-19T05:48:33;110.67;;;106.87;;
13605;SDS011;6874;52.084;5.090;2023-09-19T05:50:59;101.10;;;97.63;;
13605;SDS011;6874;52.084;5.090;2023-09-19T05:53:25;104.87;;;101.33;;
13605;SDS011;6874;52.084;5.090;2023-09-19T05:55:51;114.37;;;110.57;;
13605;SDS011;6874;52.084;5.090;2023-09-19T05:58:18;125.93;;;121.70;;
13605;SDS011;6874;52.084;5.090;2023-09-19T06:00:45;141.10;;;136.30;;
13605;SDS011;6874;52.084;5.090;2023-09-19T06:03:12;161.13;;;155.67;;
13605;SDS011;6874;52.084;5.090;2023-09-19T06:05:39;164.30;;;158.70;;
13605;SDS011;6874;52.084;5.090;2023-09-19T06:08:06;174.27;;;168.13;;
13605;SDS011;6874;52.084;5.090;2023-09-19T06:10:33;158.47;;;152.87;;
13605;SDS011;6874;52.084;5.090;2023-09-19T06:12:59;159.27;;;153.57;;
13605;SDS011;6874;52.084;5.090;2023-09-19T06:15:29;175.37;;;168.90;;
13605;SDS011;6874;52.084;5.090;2023-09-19T06:17:57;180.50;;;173.70;;
13605;SDS011;6874;52.084;5.090;2023-09-19T06:20:25;186.27;;;179.30;;
13605;SDS011;6874;52.084;5.090;2023-09-19T06:22:51;195.23;;;188.03;;
13605;SDS011;6874;52.084;5.090;2023-09-19T06:25:18;209.87;;;202.17;;
13605;SDS011;6874;52.084;5.090;2023-09-19T06:27:50;231.60;;;223.03;;
13605;SDS011;6874;52.084;5.090;2023-09-19T06:30:18;230.33;;;221.80;;
13605;SDS011;6874;52.084;5.090;2023-09-19T06:32:45;234.20;;;225.40;;
13605;SDS011;6874;52.084;5.090;2023-09-19T06:35:11;231.43;;;222.80;;
13605;SDS011;6874;52.084;5.090;2023-09-19T06:37:38;235.70;;;226.73;;
13605;SDS011;6874;52.084;5.090;2023-09-19T06:40:06;227.63;;;219.10;;
13605;SDS011;6874;52.084;5.090;2023-09-19T06:42:42;221.23;;;212.90;;
13605;SDS011;6874;52.084;5.090;2023-09-19T06:45:10;231.67;;;222.97;;
13605;SDS011;6874;52.084;5.090;2023-09-19T06:47:38;237.63;;;228.77;;
13605;SDS011;6874;52.084;5.090;2023-09-19T06:50:04;246.63;;;237.40;;
13605;SDS011;6874;52.084;5.090;2023-09-19T06:52:31;248.53;;;239.07;;
13605;SDS011;6874;52.084;5.090;2023-09-19T06:54:58;275.10;;;264.57;;
13605;SDS011;6874;52.084;5.090;2023-09-19T06:57:23;282.63;;;271.83;;
13605;SDS011;6874;52.084;5.090;2023-09-19T06:59:49;295.00;;;283.70;;
13605;SDS011;6874;52.084;5.090;2023-09-19T07:02:15;316.63;;;304.30;;
13605;SDS011;6874;52.084;5.090;2023-09-19T07:04:41;314.33;;;301.97;;
13605;SDS011;6874;52.084;5.090;2023-09-19T07:07:06;320.47;;;307.70;;
13605;SDS011;6874;52.084;5.090;2023-09-19T07:09:34;326.83;;;313.77;;
13605;SDS011;6874;52.084;5.090;2023-09-19T07:11:59;329.07;;;316.10;;
13605;SDS011;6874;52.084;5.090;2023-09-19T07:14:25;323.57;;;310.90;;
13605;SDS011;6874;52.084;5.090;2023-09-19T07:16:52;312.33;;;300.03;;
13605;SDS011;6874;52.084;5.090;2023-09-19T07:19:17;307.20;;;295.17;;
13605;SDS011;6874;52.084;5.090;2023-09-19T07:21:43;285.47;;;274.23;;
13605;SDS011;6874;52.084;5.090;2023-09-19T07:24:08;293.13;;;281.80;;
13605;SDS011;6874;52.084;5.090;2023-09-19T07:26:34;293.40;;;282.10;;
13605;SDS011;6874;52.084;5.090;2023-09-19T07:28:59;274.67;;;264.20;;
13605;SDS011;6874;52.084;5.090;2023-09-19T07:31:28;248.87;;;239.53;;
13605;SDS011;6874;52.084;5.090;2023-09-19T07:33:54;241.50;;;232.43;;
13605;SDS011;6874;52.084;5.090;2023-09-19T07:36:20;234.60;;;225.90;;
13605;SDS011;6874;52.084;5.090;2023-09-19T07:38:45;216.30;;;208.43;;
13605;SDS011;6874;52.084;5.090;2023-09-19T07:41:11;207.20;;;199.67;;
13605;SDS011;6874;52.084;5.090;2023-09-19T07:43:37;204.13;;;196.83;;
13605;SDS011;6874;52.084;5.090;2023-09-19T07:46:07;204.33;;;197.13;;
13605;SDS011;6874;52.084;5.090;2023-09-19T07:48:36;208.40;;;201.20;;
13605;SDS011;6874;52.084;5.090;2023-09-19T07:51:06;218.90;;;211.40;;
13605;SDS011;6874;52.084;5.090;2023-09-19T07:53:33;220.60;;;213.07;;
13605;SDS011;6874;52.084;5.090;2023-09-19T07:56:06;220.93;;;213.47;;
13605;SDS011;6874;52.084;5.090;2023-09-19T07:58:33;221.40;;;213.77;;
13605;SDS011;6874;52.084;5.090;2023-09-19T08:01:03;227.10;;;219.27;;
13605;SDS011;6874;52.084;5.090;2023-09-19T08:03:31;230.90;;;222.67;;
13605;SDS011;6874;52.084;5.090;2023-09-19T08:05:57;234.70;;;226.17;;
13605;SDS011;6874;52.084;5.090;2023-09-19T08:08:23;250.40;;;241.20;;
13605;SDS011;6874;52.084;5.090;2023-09-19T08:10:55;274.63;;;264.27;;
13605;SDS011;6874;52.084;5.090;2023-09-19T08:13:24;284.83;;;273.87;;
13605;SDS011;6874;52.084;5.090;2023-09-19T08:15:51;282.33;;;271.27;;
13605;SDS011;6874;52.084;5.090;2023-09-19T08:18:19;283.77;;;272.00;;
13605;SDS011;6874;52.084;5.090;2023-09-19T08:20:50;272.37;;;261.03;;
13605;SDS011;6874;52.084;5.090;2023-09-19T08:23:17;256.97;;;246.23;;
13605;SDS011;6874;52.084;5.090;2023-09-19T08:25:45;249.90;;;239.20;;
13605;SDS011;6874;52.084;5.090;2023-09-19T08:28:11;252.40;;;241.80;;
13605;SDS011;6874;52.084;5.090;2023-09-19T08:30:43;240.57;;;230.60;;
13605;SDS011;6874;52.084;5.090;2023-09-19T08:33:12;236.93;;;227.03;;
13605;SDS011;6874;52.084;5.090;2023-09-19T08:35:40;246.17;;;235.93;;
13605;SDS011;6874;52.084;5.090;2023-09-19T08:38:08;232.57;;;223.03;;
13605;SDS011;6874;52.084;5.090;2023-09-19T08:40:37;235.03;;;225.43;;
13605;SDS011;6874;52.084;5.090;2023-09-19T08:43:05;234.97;;;225.27;;
13605;SDS011;6874;52.084;5.090;2023-09-19T08:45:32;241.33;;;231.53;;
13605;SDS011;6874;52.084;5.090;2023-09-19T08:50:58;222.37;;;213.47;;
13605;SDS011;6874;52.084;5.090;2023-09-19T08:56:03;221.00;;;212.13;;
13605;SDS011;6874;52.084;5.090;2023-09-19T08:58:34;227.90;;;218.80;;
13605;SDS011;6874;52.084;5.090;2023-09-19T09:01:05;232.13;;;222.77;;
13605;SDS011;6874;52.084;5.090;2023-09-19T09:03:32;230.40;;;221.13;;
13605;SDS011;6874;52.084;5.090;2023-09-19T09:05:59;217.83;;;209.03;;
13605;SDS011;6874;52.084;5.090;2023-09-19T09:08:26;227.93;;;218.77;;
13605;SDS011;6874;52.084;5.090;2023-09-19T09:10:58;228.80;;;219.53;;
13605;SDS011;6874;52.084;5.090;2023-09-19T09:13:24;223.20;;;214.17;;
13605;SDS011;6874;52.084;5.090;2023-09-19T09:15:51;232.20;;;222.73;;
13605;SDS011;6874;52.084;5.090;2023-09-19T09:18:18;231.03;;;221.57;;
13605;SDS011;6874;52.084;5.090;2023-09-19T09:20:45;230.37;;;220.93;;
13605;SDS011;6874;52.084;5.090;2023-09-19T09:23:11;235.27;;;225.60;;
13605;SDS011;6874;52.084;5.090;2023-09-19T09:28:19;218.87;;;209.23;;
13605;SDS011;6874;52.084;5.090;2023-09-19T09:30:48;210.57;;;201.07;;
13605;SDS011;6874;52.084;5.090;2023-09-19T09:33:15;221.53;;;211.63;;
13605;SDS011;6874;52.084;5.090;2023-09-19T09:35:55;216.40;;;206.80;;
13605;SDS011;6874;52.084;5.090;2023-09-19T09:38:23;222.60;;;212.87;;
13605;SDS011;6874;52.084;5.090;2023-09-19T09:40:53;224.40;;;214.57;;
13605;SDS011;6874;52.084;5.090;2023-09-19T09:43:41;233.60;;;224.07;;
13605;SDS011;6874;52.084;5.090;2023-09-19T09:48:47;266.00;;;255.17;;
13605;SDS011;6874;52.084;5.090;2023-09-19T09:51:39;284.43;;;273.03;;
13605;SDS011;6874;52.084;5.090;2023-09-19T09:54:11;295.23;;;283.20;;
13605;SDS011;6874;52.084;5.090;2023-09-19T09:56:51;314.87;;;301.97;;
13605;SDS011;6874;52.084;5.090;2023-09-19T09:59:19;327.70;;;314.03;;
13605;SDS011;6874;52.084;5.090;2023-09-19T10:01:52;360.47;;;345.27;;
13605;SDS011;6874;52.084;5.090;2023-09-19T10:04:28;370.77;;;355.20;;
13605;SDS011;6874;52.084;5.090;2023-09-19T10:07:01;401.27;;;383.97;;
13605;SDS011;6874;52.084;5.090;2023-09-19T10:09:44;414.23;;;396.13;;
13605;SDS011;6874;52.084;5.090;2023-09-19T10:12:12;420.93;;;402.33;;
13605;SDS011;6874;52.084;5.090;2023-09-19T10:14:41;414.00;;;395.80;;
13605;SDS011;6874;52.084;5.090;2023-09-19T10:17:12;414.70;;;396.33;;
13605;SDS011;6874;52.084;5.090;2023-09-19T10:19:54;404.77;;;387.03;;
13605;SDS011;6874;52.084;5.090;2023-09-19T10:22:24;405.73;;;387.83;;
13605;SDS011;6874;52.084;5.090;2023-09-19T10:24:53;399.67;;;382.23;;
13605;SDS011;6874;52.084;5.090;2023-09-19T10:27:20;393.17;;;376.13;;
13605;SDS011;6874;52.084;5.090;2023-09-19T10:29:48;385.43;;;368.53;;
13605;SDS011;6874;52.084;5.090;2023-09-19T10:32:19;384.53;;;367.43;;
13605;SDS011;6874;52.084;5.090;2023-09-19T10:34:49;376.27;;;359.40;;
13605;SDS011;6874;52.084;5.090;2023-09-19T10:37:16;367.97;;;351.47;;
13605;SDS011;6874;52.084;5.090;2023-09-19T10:39:46;353.80;;;338.37;;
13605;SDS011;6874;52.084;5.090;2023-09-19T10:42:18;360.30;;;344.53;;
13605;SDS011;6874;52.084;5.090;2023-09-19T10:44:45;372.67;;;356.23;;
13605;SDS011;6874;52.084;5.090;2023-09-19T10:47:18;402.77;;;384.47;;
13605;SDS011;6874;52.084;5.090;2023-09-19T10:49:45;397.47;;;379.53;;
13605;SDS011;6874;52.084;5.090;2023-09-19T10:52:11;399.53;;;381.30;;
13605;SDS011;6874;52.084;5.090;2023-09-19T10:54:45;409.93;;;391.00;;
13605;SDS011;6874;52.084;5.090;2023-09-19T10:57:20;421.93;;;402.43;;
13605;SDS011;6874;52.084;5.090;2023-09-19T11:05:45;536.90;;;509.20;;
13605;SDS011;6874;52.084;5.090;2023-09-19T11:30:40;394.20;;;376.27;;
13605;SDS011;6874;52.084;5.090;2023-09-19T11:33:22;429.83;;;410.17;;
13605;SDS011;6874;52.084;5.090;2023-09-19T11:43:50;620.77;;;588.93;;
13605;SDS011;6874;52.084;5.090;2023-09-19T11:49:17;659.43;;;623.33;;
13605;SDS011;6874;52.084;5.090;2023-09-19T11:51:48;680.23;;;643.43;;
13605;SDS011;6874;52.084;5.090;2023-09-19T11:54:16;663.17;;;627.60;;
13605;SDS011;6874;52.084;5.090;2023-09-19T11:56:53;638.40;;;604.53;;
13605;SDS011;6874;52.084;5.090;2023-09-19T11:59:23;679.60;;;642.90;;
13605;SDS011;6874;52.084;5.090;2023-09-19T12:01:53;677.23;;;641.00;;
13605;SDS011;6874;52.084;5.090;2023-09-19T12:04:35;679.33;;;642.77;;
13605;SDS011;6874;52.084;5.090;2023-09-19T12:07:10;673.43;;;637.63;;
13605;SDS011;6874;52.084;5.090;2023-09-19T12:09:47;663.67;;;628.13;;
13605;SDS011;6874;52.084;5.090;2023-09-19T12:12:24;672.20;;;636.33;;
13605;SDS011;6874;52.084;5.090;2023-09-19T12:14:55;653.90;;;619.83;;
13605;SDS011;6874;52.084;5.090;2023-09-19T12:17:24;626.97;;;594.73;;
13605;SDS011;6874;52.084;5.090;2023-09-19T12:20:01;620.40;;;589.20;;
13605;SDS011;6874;52.084;5.090;2023-09-19T12:22:38;591.97;;;563.97;;
13605;SDS011;6874;52.084;5.090;2023-09-19T12:25:08;580.67;;;554.23;;
13605;SDS011;6874;52.084;5.090;2023-09-19T12:27:44;558.17;;;533.23;;
13605;SDS011;6874;52.084;5.090;2023-09-19T12:30:17;545.57;;;521.90;;
13605;SDS011;6874;52.084;5.090;2023-09-19T12:32:46;533.17;;;510.30;;
13605;SDS011;6874;52.084;5.090;2023-09-19T12:35:29;524.10;;;501.70;;
13605;SDS011;6874;52.084;5.090;2023-09-19T12:37:56;541.30;;;517.87;;
13605;SDS011;6874;52.084;5.090;2023-09-19T12:40:22;549.37;;;525.43;;
13605;SDS011;6874;52.084;5.090;2023-09-19T12:42:52;573.10;;;547.00;;
13605;SDS011;6874;52.084;5.090;2023-09-19T12:45:23;599.60;;;571.53;;
13605;SDS011;6874;52.084;5.090;2023-09-19T12:48:31;615.00;;;585.33;;
13605;SDS011;6874;52.084;5.090;2023-09-19T12:53:36;631.63;;;598.77;;
13605;SDS011;6874;52.084;5.090;2023-09-19T12:56:07;630.37;;;597.90;;
13605;SDS011;6874;52.084;5.090;2023-09-19T12:58:47;639.27;;;606.07;;
13605;SDS011;6874;52.084;5.090;2023-09-19T13:01:21;621.90;;;589.53;;
13605;SDS011;6874;52.084;5.090;2023-09-19T13:06:45;625.60;;;593.30;;
13605;SDS011;6874;52.084;5.090;2023-09-19T13:09:14;625.17;;;593.27;;
13605;SDS011;6874;52.084;5.090;2023-09-19T13:11:41;617.13;;;585.77;;
13605;SDS011;6874;52.084;5.090;2023-09-19T13:14:13;621.23;;;588.83;;
13605;SDS011;6874;52.084;5.090;2023-09-19T13:16:57;647.50;;;613.67;;
13605;SDS011;6874;52.084;5.090;2023-09-19T13:19:56;635.30;;;602.60;;
13605;SDS011;6874;52.084;5.090;2023-09-19T13:25:14;658.93;;;624.23;;
13605;SDS011;6874;52.084;5.090;2023-09-19T13:27:45;670.37;;;635.27;;
13605;SDS011;6874;52.084;5.090;2023-09-19T13:30:17;662.87;;;627.73;;
13605;SDS011;6874;52.084;5.090;2023-09-19T13:32:43;670.07;;;634.60;;
13605;SDS011;6874;52.084;5.090;2023-09-19T13:35:10;648.30;;;614.53;;
13605;SDS011;6874;52.084;5.090;2023-09-19T13:37:38;644.97;;;611.57;;
13605;SDS011;6874;52.084;5.090;2023-09-19T13:40:11;651.00;;;617.23;;
13605;SDS011;6874;52.084;5.090;2023-09-19T13:42:38;643.17;;;609.90;;
13605;SDS011;6874;52.084;5.090;2023-09-19T13:45:05;627.37;;;595.47;;
13605;SDS011;6874;52.084;5.090;2023-09-19T13:47:31;614.53;;;583.77;;
13605;SDS011;6874;52.084;5.090;2023-09-19T13:49:58;593.17;;;564.63;;
13605;SDS011;6874;52.084;5.090;2023-09-19T13:52:24;596.30;;;568.13;;
13605;SDS011;6874;52.084;5.090;2023-09-19T13:54:53;578.70;;;551.93;;
13605;SDS011;6874;52.084;5.090;2023-09-19T13:57:21;563.03;;;538.13;;
13605;SDS011;6874;52.084;5.090;2023-09-19T13:59:47;559.53;;;535.17;;
13605;SDS011;6874;52.084;5.090;2023-09-19T14:02:13;546.67;;;523.53;;
13605;SDS011;6874;52.084;5.090;2023-09-19T14:04:39;511.20;;;490.30;;
13605;SDS011;6874;52.084;5.090;2023-09-19T14:07:05;487.00;;;467.23;;
13605;SDS011;6874;52.084;5.090;2023-09-19T14:09:32;457.83;;;439.63;;
13605;SDS011;6874;52.084;5.090;2023-09-19T14:11:58;433.83;;;417.07;;
13605;SDS011;6874;52.084;5.090;2023-09-19T14:14:24;404.03;;;388.73;;
13605;SDS011;6874;52.084;5.090;2023-09-19T14:16:50;368.47;;;354.83;;
13605;SDS011;6874;52.084;5.090;2023-09-19T14:19:17;323.47;;;311.50;;
13605;SDS011;6874;52.084;5.090;2023-09-19T14:21:43;349.07;;;335.67;;
13605;SDS011;6874;52.084;5.090;2023-09-19T14:24:09;357.87;;;344.03;;
13605;SDS011;6874;52.084;5.090;2023-09-19T14:26:35;358.60;;;344.73;;
13605;SDS011;6874;52.084;5.090;2023-09-19T14:29:01;356.30;;;342.60;;
13605;SDS011;6874;52.084;5.090;2023-09-19T14:31:27;376.90;;;362.20;;
13605;SDS011;6874;52.084;5.090;2023-09-19T14:33:54;365.07;;;350.90;;
13605;SDS011;6874;52.084;5.090;2023-09-19T14:36:27;370.53;;;356.07;;
13605;SDS011;6874;52.084;5.090;2023-09-19T14:38:53;343.40;;;330.33;;
13605;SDS011;6874;52.084;5.090;2023-09-19T14:41:22;330.77;;;318.17;;
13605;SDS011;6874;52.084;5.090;2023-09-19T14:43:50;340.53;;;327.57;;
13605;SDS011;6874;52.084;5.090;2023-09-19T14:46:16;340.07;;;327.07;;
13605;SDS011;6874;52.084;5.090;2023-09-19T14:48:44;349.07;;;335.70;;
13605;SDS011;6874;52.084;5.090;2023-09-19T14:51:12;327.87;;;315.43;;
13605;SDS011;6874;52.084;5.090;2023-09-19T14:53:39;333.70;;;320.87;;
13605;SDS011;6874;52.084;5.090;2023-09-19T14:56:09;362.73;;;348.77;;
13605;SDS011;6874;52.084;5.090;2023-09-19T14:58:35;350.47;;;337.13;;
13605;SDS011;6874;52.084;5.090;2023-09-19T15:01:04;340.13;;;327.23;;
13605;SDS011;6874;52.084;5.090;2023-09-19T15:03:31;336.53;;;323.67;;
13605;SDS011;6874;52.084;5.090;2023-09-19T15:06:04;336.57;;;323.67;;
13605;SDS011;6874;52.084;5.090;2023-09-19T15:08:34;342.40;;;329.37;;
13605;SDS011;6874;52.084;5.090;2023-09-19T15:11:03;330.83;;;318.33;;
13605;SDS011;6874;52.084;5.090;2023-09-19T15:13:31;324.70;;;312.20;;
13605;SDS011;6874;52.084;5.090;2023-09-19T15:16:04;335.27;;;322.40;;
13605;SDS011;6874;52.084;5.090;2023-09-19T15:18:34;342.93;;;329.90;;
13605;SDS011;6874;52.084;5.090;2023-09-19T15:21:06;331.97;;;319.40;;
13605;SDS011;6874;52.084;5.090;2023-09-19T15:23:33;338.73;;;325.87;;
13605;SDS011;6874;52.084;5.090;2023-09-19T15:26:01;332.80;;;320.17;;
13605;SDS011;6874;52.084;5.090;2023-09-19T15:28:31;330.10;;;317.60;;
13605;SDS011;6874;52.084;5.090;2023-09-19T15:31:01;340.25;;;327.50;;